createdAt,value
2022-12-20T00:01:22.307Z,9.70
2022-12-20T00:03:51.299Z,7.55
2022-12-20T00:06:18.947Z,7.38
2022-12-20T00:08:46.372Z,11.30
2022-12-20T00:11:14.267Z,7.18
2022-12-20T00:13:41.269Z,5.77
2022-12-20T00:16:11.192Z,7.35
2022-12-20T00:18:40.766Z,7.40
2022-12-20T00:21:09.331Z,7.45
2022-12-20T00:23:37.664Z,6.22
2022-12-20T00:26:10.510Z,9.27
2022-12-20T00:28:38.487Z,6.90
2022-12-20T00:31:07.255Z,5.18
2022-12-20T00:33:35.307Z,7.25
2022-12-20T00:36:02.235Z,8.38
2022-12-20T00:38:29.074Z,8.47
2022-12-20T00:41:13.502Z,7.05
2022-12-20T00:43:41.186Z,7.07
2022-12-20T00:46:11.883Z,6.95
2022-12-20T00:48:39.430Z,5.63
2022-12-20T00:51:09.706Z,6.53
2022-12-20T00:53:37.228Z,6.35
2022-12-20T00:56:05.252Z,8.55
2022-12-20T00:58:35.151Z,7.38
2022-12-20T01:01:02.204Z,7.30
2022-12-20T01:03:29.386Z,6.13
2022-12-20T01:06:01.597Z,6.53
2022-12-20T01:08:30.742Z,6.75
2022-12-20T01:11:14.855Z,7.07
2022-12-20T01:13:44.587Z,6.97
2022-12-20T01:16:18.359Z,6.97
2022-12-20T01:18:46.094Z,6.35
2022-12-20T01:21:16.202Z,7.50
2022-12-20T01:23:43.343Z,7.07
2022-12-20T01:26:17.589Z,6.30
2022-12-20T01:28:46.100Z,7.60
2022-12-20T01:31:16.207Z,8.02
2022-12-20T01:33:44.648Z,6.13
2022-12-20T01:36:16.967Z,6.95
2022-12-20T01:38:44.271Z,7.75
2022-12-20T01:41:19.397Z,7.23
2022-12-20T01:43:56.409Z,4.40
2022-12-20T01:46:34.912Z,8.00
2022-12-20T01:49:25.071Z,5.53
2022-12-20T01:52:05.509Z,6.00
2022-12-20T01:54:46.636Z,7.93
2022-12-20T01:57:20.977Z,6.10
2022-12-20T01:59:50.587Z,7.25
2022-12-20T02:02:18.153Z,9.70
2022-12-20T02:04:44.989Z,5.97
2022-12-20T02:07:17.776Z,8.20
2022-12-20T02:09:45.292Z,8.60
2022-12-20T02:12:16.359Z,7.05
2022-12-20T02:14:51.158Z,8.95
2022-12-20T02:17:29.912Z,7.43
2022-12-20T02:20:18.240Z,7.43
2022-12-20T02:23:16.701Z,6.30
2022-12-20T02:26:02.209Z,7.57
2022-12-20T02:28:55.180Z,7.22
2022-12-20T02:31:30.268Z,8.10
2022-12-20T02:33:58.727Z,7.63
2022-12-20T02:36:25.742Z,8.05
2022-12-20T02:38:52.836Z,8.15
2022-12-20T02:41:23.470Z,6.05
2022-12-20T02:44:14.823Z,7.35
2022-12-20T02:46:42.755Z,4.53
2022-12-20T02:49:17.115Z,7.63
2022-12-20T02:51:47.787Z,6.93
2022-12-20T02:54:16.080Z,5.10
2022-12-20T02:56:54.618Z,8.27
2022-12-20T02:59:51.643Z,4.93
2022-12-20T03:02:19.276Z,10.60
2022-12-20T03:04:47.660Z,7.90
2022-12-20T03:07:15.510Z,6.45
2022-12-20T03:09:44.519Z,7.28
2022-12-20T03:12:15.975Z,9.07
2022-12-20T03:14:42.737Z,5.93
2022-12-20T03:17:11.543Z,6.60
2022-12-20T03:19:38.548Z,6.43
2022-12-20T03:22:06.099Z,6.72
2022-12-20T03:24:33.596Z,8.43
2022-12-20T03:27:01.243Z,7.65
2022-12-20T03:29:28.240Z,7.00
2022-12-20T03:31:55.105Z,6.07
2022-12-20T03:34:22.148Z,6.90
2022-12-20T03:36:50.155Z,5.97
2022-12-20T03:39:17.167Z,6.47
2022-12-20T03:41:44.422Z,5.60
2022-12-20T03:44:14.063Z,5.82
2022-12-20T03:46:41.195Z,5.28
2022-12-20T03:49:08.237Z,5.60
2022-12-20T03:51:42.462Z,5.43
2022-12-20T03:54:09.468Z,7.47
2022-12-20T03:57:02.413Z,5.05
2022-12-20T03:59:30.497Z,5.68
2022-12-20T04:01:58.763Z,5.53
2022-12-20T04:04:28.932Z,10.35
2022-12-20T04:06:55.914Z,7.43
2022-12-20T04:09:23.053Z,6.07
2022-12-20T04:11:54.940Z,4.72
2022-12-20T04:14:21.733Z,5.00
2022-12-20T04:16:49.243Z,4.93
2022-12-20T04:19:16.244Z,6.10
2022-12-20T04:21:46.473Z,6.75
2022-12-20T04:24:15.373Z,7.15
2022-12-20T04:27:08.360Z,7.77
2022-12-20T04:29:35.468Z,5.18
2022-12-20T04:32:04.910Z,6.45
2022-12-20T04:34:31.700Z,7.68
2022-12-20T04:36:59.276Z,5.60
2022-12-20T04:39:37.532Z,5.70
2022-12-20T04:42:30.646Z,5.60
2022-12-20T04:44:57.996Z,5.20
2022-12-20T04:47:28.343Z,6.88
2022-12-20T04:49:55.655Z,7.30
2022-12-20T04:52:47.300Z,7.93
2022-12-20T04:55:15.554Z,7.10
2022-12-20T04:57:42.481Z,7.05
2022-12-20T05:00:10.116Z,7.45
2022-12-20T05:02:42.203Z,7.90
2022-12-20T05:05:14.203Z,8.50
2022-12-20T05:07:47.121Z,7.70
2022-12-20T05:10:14.464Z,8.70
2022-12-20T05:12:41.403Z,5.90
2022-12-20T05:15:12.795Z,5.28
2022-12-20T05:17:40.075Z,8.70
2022-12-20T05:20:07.617Z,6.85
2022-12-20T05:22:53.053Z,6.45
2022-12-20T05:25:38.471Z,8.45
2022-12-20T05:28:07.773Z,5.20
2022-12-20T05:30:36.741Z,7.57
2022-12-20T05:33:04.121Z,6.75
2022-12-20T05:35:31.645Z,7.28
2022-12-20T05:38:06.147Z,5.53
2022-12-20T05:40:33.267Z,7.43
2022-12-20T05:43:00.709Z,10.23
2022-12-20T05:45:36.592Z,6.43
2022-12-20T05:48:09.549Z,5.88
2022-12-20T05:50:39.542Z,7.60
2022-12-20T05:53:21.546Z,5.90
2022-12-20T05:55:54.062Z,7.00
2022-12-20T05:58:25.242Z,5.28
2022-12-20T06:01:05.151Z,6.35
2022-12-20T06:03:37.514Z,7.13
2022-12-20T06:06:13.992Z,6.78
2022-12-20T06:08:41.930Z,7.17
2022-12-20T06:11:13.914Z,8.18
2022-12-20T06:13:52.016Z,6.57
2022-12-20T06:16:21.205Z,8.05
2022-12-20T06:18:48.162Z,7.47
2022-12-20T06:21:16.177Z,8.43
2022-12-20T06:23:43.478Z,6.97
2022-12-20T06:26:13.639Z,6.38
2022-12-20T06:28:54.517Z,4.05
2022-12-20T06:31:25.372Z,7.15
2022-12-20T06:33:54.205Z,10.20
2022-12-20T06:36:22.929Z,8.73
2022-12-20T06:38:50.566Z,6.80
2022-12-20T06:41:18.353Z,10.63
2022-12-20T06:43:45.583Z,5.63
2022-12-20T06:46:12.595Z,8.70
2022-12-20T06:48:39.557Z,7.45
2022-12-20T06:51:08.448Z,5.47
2022-12-20T06:53:35.603Z,5.95
2022-12-20T06:56:03.360Z,6.63
2022-12-20T06:58:32.090Z,4.20
2022-12-20T07:00:59.129Z,6.72
2022-12-20T07:03:26.205Z,4.70
2022-12-20T07:05:54.371Z,5.97
2022-12-20T07:08:25.208Z,8.18
2022-12-20T07:10:56.519Z,5.07
2022-12-20T07:13:23.771Z,5.82
2022-12-20T07:15:59.236Z,5.43
2022-12-20T07:18:26.391Z,5.05
2022-12-20T07:20:53.654Z,5.47
2022-12-20T07:23:20.644Z,6.83
2022-12-20T07:25:55.478Z,5.70
2022-12-20T07:28:23.750Z,3.33
2022-12-20T07:30:53.828Z,4.70
2022-12-20T07:33:21.382Z,4.95
2022-12-20T07:35:53.984Z,5.87
2022-12-20T07:38:21.385Z,5.20
2022-12-20T07:40:48.351Z,7.20
2022-12-20T07:43:15.293Z,5.03
2022-12-20T07:45:42.348Z,4.75
2022-12-20T07:48:15.227Z,5.90
2022-12-20T07:50:45.380Z,7.75
2022-12-20T07:53:12.394Z,3.92
2022-12-20T07:55:42.172Z,8.65
2022-12-20T07:58:11.598Z,3.83
2022-12-20T08:00:39.074Z,6.80
2022-12-20T08:03:16.898Z,6.53
2022-12-20T08:05:48.502Z,5.10
2022-12-20T08:08:15.910Z,5.90
2022-12-20T08:10:43.454Z,5.47
2022-12-20T08:13:10.562Z,7.40
2022-12-20T08:15:37.538Z,6.43
2022-12-20T08:18:06.182Z,5.82
2022-12-20T08:20:33.499Z,5.18
2022-12-20T08:23:02.463Z,6.38
2022-12-20T08:25:29.443Z,8.27
2022-12-20T08:27:56.475Z,6.78
2022-12-20T08:30:23.439Z,4.30
2022-12-20T08:32:50.440Z,5.68
2022-12-20T08:35:17.406Z,7.65
2022-12-20T08:37:44.362Z,5.03
2022-12-20T08:40:11.902Z,5.55
2022-12-20T08:42:38.886Z,5.85
2022-12-20T08:45:07.221Z,4.20
2022-12-20T08:47:34.354Z,8.95
2022-12-20T08:50:01.890Z,6.33
2022-12-20T08:52:29.767Z,4.75
2022-12-20T08:54:56.693Z,9.23
2022-12-20T08:57:23.752Z,7.55
2022-12-20T08:59:50.717Z,6.18
2022-12-20T09:02:23.121Z,5.27
2022-12-20T09:04:50.587Z,5.70
2022-12-20T09:07:17.648Z,7.28
2022-12-20T09:09:44.525Z,6.35
2022-12-20T09:12:12.092Z,6.40
2022-12-20T09:14:40.279Z,5.80
2022-12-20T09:17:07.798Z,8.73
2022-12-20T09:19:34.718Z,7.28
2022-12-20T09:22:01.821Z,5.63
2022-12-20T09:24:29.997Z,8.70
2022-12-20T09:26:56.975Z,6.53
2022-12-20T09:29:29.450Z,10.75
2022-12-20T09:31:56.576Z,8.38
2022-12-20T09:34:23.573Z,5.82
2022-12-20T09:36:51.918Z,8.35
2022-12-20T09:39:19.289Z,8.17
2022-12-20T09:41:46.517Z,7.82
2022-12-20T09:44:15.788Z,5.93
2022-12-20T09:46:45.777Z,6.97
2022-12-20T09:49:17.400Z,6.38
2022-12-20T09:52:10.794Z,10.10
2022-12-20T09:54:53.364Z,6.35
2022-12-20T09:57:43.844Z,5.55
2022-12-20T10:00:19.915Z,7.97
2022-12-20T10:03:09.974Z,7.65
2022-12-20T10:05:46.720Z,5.70
2022-12-20T10:08:23.767Z,8.40
2022-12-20T10:11:08.900Z,9.10
2022-12-20T10:13:42.387Z,8.85
2022-12-20T10:16:12.663Z,10.50
2022-12-20T10:18:46.339Z,5.87
2022-12-20T10:21:51.108Z,7.95
2022-12-20T10:24:21.502Z,7.65
2022-12-20T10:26:51.977Z,10.43
2022-12-20T10:29:21.256Z,7.78
2022-12-20T10:32:00.918Z,8.73
2022-12-20T10:34:36.562Z,9.43
2022-12-20T10:37:13.041Z,8.27
2022-12-20T10:39:47.374Z,6.72
2022-12-20T10:42:36.111Z,6.18
2022-12-20T10:45:03.647Z,13.53
2022-12-20T10:47:41.712Z,12.55
2022-12-20T10:50:29.375Z,8.85
2022-12-20T10:53:15.002Z,9.52
2022-12-20T10:55:44.038Z,7.00
2022-12-20T10:58:33.642Z,7.10
2022-12-20T11:01:23.833Z,6.90
2022-12-20T11:03:53.747Z,8.88
2022-12-20T11:06:23.943Z,7.85
2022-12-20T11:08:57.021Z,9.07
2022-12-20T11:11:27.617Z,9.63
2022-12-20T11:13:54.695Z,7.82
2022-12-20T11:16:41.089Z,13.18
2022-12-20T11:19:29.436Z,7.32
2022-12-20T11:22:17.622Z,12.07
2022-12-20T11:25:05.974Z,7.23
2022-12-20T11:27:37.994Z,9.68
2022-12-20T11:30:20.211Z,10.90
2022-12-20T11:33:02.987Z,8.02
2022-12-20T11:36:09.044Z,11.32
2022-12-20T11:38:48.017Z,7.67
2022-12-20T11:41:33.784Z,8.52
2022-12-20T11:44:25.253Z,12.30
2022-12-20T11:47:20.052Z,9.27
2022-12-20T11:50:14.755Z,12.93
2022-12-20T11:52:48.089Z,11.70
2022-12-20T11:55:27.499Z,10.32
2022-12-20T11:58:35.356Z,11.68
2022-12-20T12:01:15.310Z,10.93
2022-12-20T12:04:04.820Z,12.82
2022-12-20T12:06:40.082Z,11.50
2022-12-20T12:09:12.145Z,11.38
2022-12-20T12:12:08.841Z,13.85
2022-12-20T12:15:04.806Z,9.27
2022-12-20T12:17:38.089Z,9.50
2022-12-20T12:20:35.237Z,10.40
2022-12-20T12:23:37.028Z,8.35
2022-12-20T12:26:20.242Z,11.73
2022-12-20T12:29:10.404Z,13.30
2022-12-20T12:31:46.374Z,8.50
2022-12-20T12:34:50.773Z,9.73
2022-12-20T12:37:46.672Z,9.35
2022-12-20T12:40:32.518Z,8.10
2022-12-20T12:43:26.813Z,10.50
2022-12-20T12:46:14.229Z,12.02
2022-12-20T12:49:10.856Z,11.87
2022-12-20T12:51:50.194Z,12.90
2022-12-20T12:54:27.620Z,9.40
2022-12-20T12:57:06.727Z,17.20
2022-12-20T12:59:33.763Z,12.18
2022-12-20T13:02:06.248Z,11.77
2022-12-20T13:04:55.463Z,12.75
2022-12-20T13:07:35.285Z,11.35
2022-12-20T13:10:25.559Z,10.60
2022-12-20T13:12:52.752Z,11.50
2022-12-20T13:15:19.713Z,11.67
2022-12-20T13:17:55.762Z,10.80
2022-12-20T13:20:34.802Z,11.63
2022-12-20T13:23:11.882Z,11.40
2022-12-20T13:25:42.220Z,11.05
2022-12-20T13:28:24.677Z,9.87
2022-12-20T13:31:00.680Z,9.80
2022-12-20T13:33:47.060Z,11.23
2022-12-20T13:36:16.934Z,10.15
2022-12-20T13:38:44.918Z,11.75
2022-12-20T13:41:20.238Z,9.17
2022-12-20T13:43:49.661Z,11.93
2022-12-20T13:46:42.467Z,8.65
2022-12-20T13:49:15.276Z,6.95
2022-12-20T13:51:42.529Z,11.07
2022-12-20T13:54:23.167Z,11.87
2022-12-20T13:56:54.209Z,10.05
2022-12-20T13:59:31.775Z,10.05
2022-12-20T14:02:05.138Z,12.70
2022-12-20T14:04:44.676Z,12.90
2022-12-20T14:07:18.346Z,7.43
2022-12-20T14:09:47.359Z,11.73
2022-12-20T14:12:22.908Z,10.77
2022-12-20T14:14:54.451Z,11.57
2022-12-20T14:17:29.648Z,12.52
2022-12-20T14:20:24.349Z,12.13
2022-12-20T14:23:06.197Z,10.50
2022-12-20T14:25:44.595Z,13.15
2022-12-20T14:28:30.197Z,10.85
2022-12-20T14:30:59.945Z,13.27
2022-12-20T14:33:41.445Z,11.27
2022-12-20T14:36:21.070Z,10.55
2022-12-20T14:38:52.644Z,13.23
2022-12-20T14:41:36.470Z,10.25
2022-12-20T14:44:22.473Z,12.02
2022-12-20T14:46:58.387Z,9.17
2022-12-20T14:49:34.460Z,11.27
2022-12-20T14:52:34.186Z,12.60
2022-12-20T14:55:08.364Z,11.85
2022-12-20T14:57:36.412Z,11.52
2022-12-20T15:00:18.555Z,9.50
2022-12-20T15:02:59.552Z,12.25
2022-12-20T15:05:35.985Z,8.50
2022-12-20T15:08:18.460Z,14.23
2022-12-20T15:11:00.345Z,11.93
2022-12-20T15:13:32.085Z,13.33
2022-12-20T15:16:04.666Z,13.43
2022-12-20T15:18:32.632Z,14.07
2022-12-20T15:21:07.056Z,14.65
2022-12-20T15:23:34.543Z,14.73
2022-12-20T15:26:01.547Z,12.90
2022-12-20T15:28:28.722Z,12.77
2022-12-20T15:30:56.109Z,13.25
2022-12-20T15:33:29.304Z,14.85
2022-12-20T15:35:56.962Z,15.85
2022-12-20T15:38:47.716Z,13.80
2022-12-20T15:41:33.966Z,14.63
2022-12-20T15:44:05.410Z,13.57
2022-12-20T15:46:32.418Z,12.85
2022-12-20T15:48:59.829Z,13.85
2022-12-20T15:51:38.183Z,14.70
2022-12-20T15:54:22.180Z,16.50
2022-12-20T15:56:49.130Z,14.77
2022-12-20T15:59:48.829Z,12.88
2022-12-20T16:02:03.515Z,15.32
2022-12-20T16:04:30.566Z,15.10
2022-12-20T16:06:57.557Z,15.90
2022-12-20T16:09:25.980Z,16.00
2022-12-20T16:11:53.087Z,12.57
2022-12-20T16:14:21.803Z,15.90
2022-12-20T16:16:51.777Z,16.60
2022-12-20T16:19:19.397Z,16.10
2022-12-20T16:21:48.961Z,16.60
2022-12-20T16:24:18.682Z,13.90
2022-12-20T16:26:46.269Z,14.63
2022-12-20T16:29:13.295Z,15.47
2022-12-20T16:31:44.612Z,16.58
2022-12-20T16:34:17.468Z,18.63
2022-12-20T16:36:45.103Z,17.23
2022-12-20T16:39:12.226Z,15.65
2022-12-20T16:41:43.783Z,21.67
2022-12-20T16:44:16.423Z,18.83
2022-12-20T16:46:43.865Z,18.75
2022-12-20T16:49:19.404Z,13.13
2022-12-20T16:51:48.219Z,15.80
2022-12-20T16:54:20.643Z,15.70
2022-12-20T16:56:51.074Z,17.40
2022-12-20T16:59:20.853Z,15.35
2022-12-20T17:01:50.010Z,20.88
2022-12-20T17:04:18.995Z,18.63
2022-12-20T17:06:46.936Z,20.93
2022-12-20T17:12:00.491Z,15.23
2022-12-20T17:14:27.456Z,22.35
2022-12-20T17:16:54.399Z,24.58
2022-12-20T17:19:23.902Z,20.97
2022-12-20T17:24:35.317Z,23.02
2022-12-20T17:27:02.372Z,22.63
2022-12-20T17:29:30.592Z,22.40
2022-12-20T17:31:57.699Z,24.87
2022-12-20T17:34:28.627Z,23.73
2022-12-20T17:36:57.831Z,24.55
2022-12-20T17:39:25.879Z,24.27
2022-12-20T17:41:54.915Z,25.55
2022-12-20T17:44:27.248Z,27.43
2022-12-20T17:46:56.112Z,23.50
2022-12-20T17:49:24.387Z,25.80
2022-12-20T17:51:52.216Z,23.45
2022-12-20T17:54:22.093Z,23.27
2022-12-20T17:56:53.625Z,25.60
2022-12-20T17:59:22.425Z,25.05
2022-12-20T18:01:49.689Z,27.02
2022-12-20T18:04:17.316Z,28.00
2022-12-20T18:06:45.474Z,28.45
2022-12-20T18:09:19.297Z,28.53
2022-12-20T18:11:46.287Z,31.55
2022-12-20T18:14:14.028Z,23.40
2022-12-20T18:16:41.661Z,28.48
2022-12-20T18:19:14.519Z,29.38
2022-12-20T18:21:41.798Z,31.47
2022-12-20T18:24:11.700Z,29.27
2022-12-20T18:26:38.676Z,30.65
2022-12-20T18:29:05.439Z,31.88
2022-12-20T18:31:34.328Z,26.08
2022-12-20T18:34:02.049Z,27.07
2022-12-20T18:36:31.737Z,22.45
2022-12-20T18:38:59.613Z,27.25
2022-12-20T18:41:29.834Z,24.98
2022-12-20T18:44:01.490Z,29.75
2022-12-20T18:46:29.027Z,32.70
2022-12-20T18:48:59.636Z,31.65
2022-12-20T18:51:33.126Z,30.85
2022-12-20T18:54:00.818Z,30.17
2022-12-20T18:56:30.830Z,33.03
2022-12-20T18:59:04.569Z,32.00
2022-12-20T19:01:37.752Z,33.47
2022-12-20T19:04:06.099Z,37.45
2022-12-20T19:06:33.020Z,34.85
2022-12-20T19:09:00.903Z,39.70
2022-12-20T19:11:29.080Z,36.57
2022-12-20T19:13:56.701Z,39.25
2022-12-20T19:16:26.720Z,39.97
2022-12-20T19:18:53.624Z,38.00
2022-12-20T19:21:34.845Z,37.40
2022-12-20T19:24:05.202Z,36.03
2022-12-20T19:26:32.457Z,34.58
2022-12-20T19:28:59.977Z,31.67
2022-12-20T19:31:29.994Z,38.17
2022-12-20T19:33:59.764Z,40.72
2022-12-20T19:36:31.966Z,36.03
2022-12-20T19:39:01.574Z,34.40
2022-12-20T19:41:31.237Z,40.15
2022-12-20T19:43:58.912Z,38.10
2022-12-20T19:46:29.266Z,38.90
2022-12-20T19:48:57.771Z,43.03
2022-12-20T19:51:25.660Z,42.00
2022-12-20T19:53:53.856Z,44.97
2022-12-20T19:56:26.775Z,42.97
2022-12-20T19:58:55.182Z,43.28
2022-12-20T20:01:25.689Z,42.97
2022-12-20T20:03:54.507Z,50.72
2022-12-20T20:06:22.163Z,50.55
2022-12-20T20:08:49.814Z,52.25
2022-12-20T20:11:18.910Z,45.22
2022-12-20T20:13:46.097Z,46.23
2022-12-20T20:16:18.196Z,48.28
2022-12-20T20:18:49.053Z,43.00
2022-12-20T20:21:19.834Z,48.70
2022-12-20T20:23:46.745Z,45.90
2022-12-20T20:26:17.208Z,54.37
2022-12-20T20:28:45.645Z,53.00
2022-12-20T20:31:15.152Z,53.17
2022-12-20T20:33:42.916Z,42.75
2022-12-20T20:36:15.233Z,49.03
2022-12-20T20:38:42.213Z,55.40
2022-12-20T20:41:10.031Z,51.65
2022-12-20T20:43:38.182Z,55.78
2022-12-20T20:46:07.095Z,58.08
2022-12-20T20:48:34.700Z,57.55
2022-12-20T20:51:01.566Z,52.43
2022-12-20T20:53:33.359Z,47.28
2022-12-20T20:56:01.787Z,55.22
2022-12-20T20:58:28.566Z,54.70
2022-12-20T21:00:59.938Z,48.40
2022-12-20T21:03:28.066Z,55.67
2022-12-20T21:08:41.908Z,53.78
2022-12-20T21:11:10.109Z,54.55
2022-12-20T21:13:37.038Z,55.35
2022-12-20T21:16:20.275Z,54.80
2022-12-20T21:18:51.980Z,52.83
2022-12-20T21:21:18.874Z,54.20
2022-12-20T21:23:47.046Z,51.85
2022-12-20T21:26:15.360Z,53.67
2022-12-20T21:28:43.782Z,50.80
2022-12-20T21:31:13.415Z,51.63
2022-12-20T21:33:40.666Z,52.80
2022-12-20T21:36:11.715Z,57.08
2022-12-20T21:38:38.486Z,57.83
2022-12-20T21:41:07.959Z,57.27
2022-12-20T21:43:35.479Z,58.75
2022-12-20T21:46:02.994Z,53.78
2022-12-20T21:48:30.403Z,61.90
2022-12-20T21:51:03.039Z,64.97
2022-12-20T21:53:31.239Z,60.90
2022-12-20T21:55:59.838Z,60.63
2022-12-20T21:58:29.040Z,65.57
2022-12-20T22:00:56.785Z,66.95
2022-12-20T22:03:25.102Z,56.25
2022-12-20T22:05:54.153Z,61.77
2022-12-20T22:08:22.323Z,59.00
2022-12-20T22:10:57.446Z,57.83
2022-12-20T22:13:24.275Z,59.80
2022-12-20T22:15:51.192Z,56.50
2022-12-20T22:18:18.071Z,55.70
2022-12-20T22:20:45.979Z,62.13
2022-12-20T22:23:12.837Z,61.63
2022-12-20T22:25:40.369Z,61.00
2022-12-20T22:28:07.317Z,59.65
2022-12-20T22:30:34.619Z,62.70
2022-12-20T22:33:01.460Z,59.15
2022-12-20T22:35:28.213Z,64.70
2022-12-20T22:37:54.904Z,60.63
2022-12-20T22:40:23.051Z,61.42
2022-12-20T22:42:49.989Z,60.53
2022-12-20T22:45:16.940Z,58.13
2022-12-20T22:47:43.709Z,62.33
2022-12-20T22:50:11.027Z,56.33
2022-12-20T22:52:37.835Z,49.53
2022-12-20T22:55:05.135Z,59.03
2022-12-20T22:57:34.655Z,62.65
2022-12-20T23:00:01.779Z,63.55
2022-12-20T23:02:28.706Z,59.63
2022-12-20T23:04:55.631Z,60.00
2022-12-20T23:07:22.565Z,63.53
2022-12-20T23:09:49.389Z,63.10
2022-12-20T23:12:34.572Z,62.00
2022-12-20T23:15:20.154Z,65.57
2022-12-20T23:17:47.148Z,59.55
2022-12-20T23:20:32.281Z,56.43
2022-12-20T23:22:59.066Z,61.80
2022-12-20T23:25:25.865Z,59.47
2022-12-20T23:27:52.669Z,58.90
2022-12-20T23:30:22.700Z,57.22
2022-12-20T23:32:49.751Z,57.13
2022-12-20T23:35:19.481Z,51.42
2022-12-20T23:37:47.067Z,54.08
2022-12-20T23:40:16.246Z,56.78
2022-12-20T23:42:43.597Z,49.65
2022-12-20T23:45:11.257Z,50.80
2022-12-20T23:47:38.012Z,46.95
2022-12-20T23:50:05.338Z,53.65
2022-12-20T23:52:32.221Z,48.75
2022-12-20T23:54:59.003Z,45.28
2022-12-20T23:57:28.275Z,49.10
2022-12-20T23:59:55.057Z,48.40
